EDDH 210250Z 33001KT CAVOK 08/08 Q1026 NOSIG EDDH 210220Z 21001KT CAVOK 08/08 Q1026 NOSIG EDDH 210150Z VRB02KT CAVOK 08/08 Q1026 NOSIG EDDH 210120Z VRB02KT CAVOK 07/07 Q1026 NOSIG EDDH 210050Z 32002KT CAVOK 06/06 Q1026 NOSIG EDDH 210020Z 33003KT 7000 1000SW R05/P2000N R15/1500U BCFG BR FEW001 06/06 Q1027 NOSIG EDDH 202350Z 33002KT 9999 2400NW BCFG FEW042 05/05 Q1026 NOSIG EDDH 202320Z 31003KT 9999 2400NW BCFG FEW042 07/07 Q1026 NOSIG EDDH 202250Z VRB02KT 9999 FEW042 07/07 Q1026 NOSIG EDDH 202220Z 36002KT 9999 FEW042 08/08 Q1026 NOSIG EDDH 202150Z 32003KT 9999 SCT042 08/08 Q1026 NOSIG EDDH 202120Z 31002KT 9999 SCT041 09/08 Q1026 NOSIG EDDH 202050Z VRB02KT CAVOK 09/08 Q1025 NOSIG EDDH 202020Z 32003KT CAVOK 10/09 Q1025 NOSIG EDDH 201950Z VRB01KT CAVOK 11/10 Q1025 NOSIG EDDH 201920Z 32003KT CAVOK 11/10 Q1025 NOSIG EDDH 201850Z 32003KT CAVOK 12/10 Q1025 NOSIG EDDH 201820Z 01002KT CAVOK 12/10 Q1025 NOSIG EDDH 201750Z 02002KT CAVOK 12/10 Q1025 NOSIG EDDH 201720Z 05002KT CAVOK 12/10 Q1024 NOSIG EDDH 201650Z VRB01KT CAVOK 13/09 Q1024 NOSIG EDDH 201620Z 01003KT 340V040 CAVOK 14/08 Q1024 NOSIG EDDH 201550Z 03004KT 350V060 9999 FEW028 14/08 Q1024 NOSIG EDDH 201520Z 01004KT 330V050 9999 FEW028 14/08 Q1024 NOSIG EDDH 201450Z 01004KT 320V070 9999 FEW028 14/07 Q1023 NOSIG EDDH 201420Z 02006KT 340V050 9999 FEW026 14/08 Q1023 NOSIG EDDH 201350Z 36007KT 320V030 9999 FEW026 14/07 Q1023 NOSIG EDDH 201320Z 03007KT 9999 FEW026 14/07 Q1023 NOSIG EDDH 201250Z 02006KT 340V050 9999 FEW025 14/08 Q1023 NOSIG EDDH 201220Z 36006KT 320V030 9999 FEW025 14/08 Q1023 NOSIG EDDH 201150Z 03006KT 350V060 9999 FEW025 14/08 Q1023 NOSIG EDDH 201120Z 03006KT 360V060 9999 FEW025 14/08 Q1023 NOSIG EDDH 201050Z 05005KT 340V090 9999 FEW025 14/08 Q1023 NOSIG EDDH 201020Z 04006KT 360V060 9999 FEW025 14/08 Q1023 NOSIG EDDH 200950Z 04005KT 360V070 9999 FEW025 13/08 Q1023 NOSIG EDDH 200920Z 06006KT 020V080 9999 FEW025 13/08 Q1023 NOSIG EDDH 200850Z 05005KT 020V080 CAVOK 13/09 Q1023 NOSIG EDDH 200820Z 04005KT CAVOK 13/09 Q1023 NOSIG EDDH 200750Z 04004KT 010V070 CAVOK 12/09 Q1023 NOSIG EDDH 200720Z 05005KT 020V080 CAVOK 12/08 Q1022 NOSIG EDDH 200650Z 06005KT CAVOK 12/09 Q1022 NOSIG EDDH 200620Z 05003KT 020V080 9999 BKN048 11/09 Q1022 NOSIG EDDH 200550Z 06003KT 9999 BKN048 11/08 Q1022 NOSIG EDDH 200520Z 06004KT 9999 BKN048 11/08 Q1022 NOSIG EDDH 200450Z 05004KT 9999 BKN048 11/08 Q1022 NOSIG EDDH 200420Z 05003KT 9999 BKN049 11/08 Q1021 NOSIG EDDH 200350Z 05004KT 010V070 CAVOK 11/08 Q1021 NOSIG EDDH 200320Z 05005KT CAVOK 11/08 Q1021 NOSIG EDDH 200250Z 05004KT 010V070 CAVOK 11/08 Q1021 NOSIG EDDH 200220Z 05004KT CAVOK 11/08 Q1021 NOSIG EDDH 200150Z 06006KT CAVOK 11/08 Q1021 NOSIG EDDH 200120Z 05005KT CAVOK 12/08 Q1021 NOSIG EDDH 200050Z 06005KT CAVOK 12/09 Q1021 NOSIG EDDH 200020Z 06006KT CAVOK 12/09 Q1021 NOSIG EDDH 192350Z 05005KT CAVOK 12/09 Q1021 NOSIG EDDH 192320Z 07005KT CAVOK 12/09 Q1021 NOSIG EDDH 192250Z 07007KT CAVOK 12/09 Q1020 NOSIG EDDH 192220Z 07007KT CAVOK 12/09 Q1020 NOSIG EDDH 192150Z 07007KT CAVOK 12/09 Q1020 NOSIG EDDH 192120Z 08007KT CAVOK 13/09 Q1020 NOSIG EDDH 192050Z 07007KT CAVOK 13/09 Q1020 NOSIG EDDH 192020Z 08007KT CAVOK 13/09 Q1020 NOSIG EDDH 191950Z 07006KT CAVOK 13/09 Q1020 NOSIG EDDH 191920Z 07007KT CAVOK 13/09 Q1020 NOSIG EDDH 191850Z 08007KT CAVOK 13/09 Q1019 NOSIG EDDH 191820Z 08008KT 9999 FEW035 14/09 Q1019 NOSIG EDDH 191750Z 05004KT 9999 FEW035 OVC049 14/10 Q1019 NOSIG EDDH 191720Z 07004KT 9999 FEW025 BKN049 14/09 Q1019 NOSIG EDDH 191650Z 07006KT 9999 FEW025 BKN049 14/09 Q1019 NOSIG EDDH 191620Z 07006KT 9999 FEW028 BKN049 15/09 Q1019 NOSIG EDDH 191550Z 07005KT 050V110 9999 FEW028 BKN049 15/09 Q1019 NOSIG EDDH 191520Z 05005KT 9999 FEW028 BKN048 15/09 Q1019 NOSIG

METAR Messwerte

Zurück zur Übersicht

Ort
m ü. NN
Zeit Temperatur Taupunkt Rel.
Luftfeuchte
Luftdruck:
Altimeter
NN
Station
Wind in Beaufort
(Knoten)
Sichtweite
(Meter)
Wolken
(Meter über Grund)
Wettererscheinung
Hamburg-Fuhlsbüttel
16
Di 21.09. 04:5088100 %1026
1026
1024
NNW 1 (1)>= 10000Nicht signifikant 
Hamburg-Fuhlsbüttel
16
Di 21.09. 04:2088100 %1026
1026
1024
SSW 1 (1)>= 10000Nicht signifikant 
Hamburg-Fuhlsbüttel
16
Di 21.09. 03:5088100 %1026
1026
1024
Uml 1 (2)>= 10000Nicht signifikant 
Hamburg-Fuhlsbüttel
16
Di 21.09. 03:2077100 %1026
1026
1024
Uml 1 (2)>= 10000Nicht signifikant 
Hamburg-Fuhlsbüttel
16
Di 21.09. 02:5066100 %1026
1026
1024
NW 1 (2)>= 10000Nicht signifikant 
Hamburg-Fuhlsbüttel
16
Di 21.09. 02:2066100 %1027
1027
1025
NNW 2 (3)7000Leicht bewölkt (30)Nebel-Bänke
Nebeldunst
Hamburg-Fuhlsbüttel
16
Di 21.09. 01:5055100 %1026
1026
1024
NNW 1 (2)>= 10000Leicht bewölkt (1300)Nebel-Bänke
Hamburg-Fuhlsbüttel
16
Di 21.09. 01:2077100 %1026
1026
1024
NW 2 (3)>= 10000Leicht bewölkt (1300)Nebel-Bänke
Hamburg-Fuhlsbüttel
16
Di 21.09. 00:5077100 %1026
1026
1024
Uml 1 (2)>= 10000Leicht bewölkt (1300) 
Hamburg-Fuhlsbüttel
16
Di 21.09. 00:2088100 %1026
1026
1024
N 1 (2)>= 10000Leicht bewölkt (1300) 
Hamburg-Fuhlsbüttel
16
Mo 20.09. 23:5088100 %1026
1026
1024
NW 2 (3)>= 10000Wolkig (1300) 
Hamburg-Fuhlsbüttel
16
Mo 20.09. 23:209893 %1026
1026
1024
NW 1 (2)>= 10000Wolkig (1200) 
Hamburg-Fuhlsbüttel
16
Mo 20.09. 22:509893 %1025
1025
1023
Uml 1 (2)>= 10000Nicht signifikant 
Hamburg-Fuhlsbüttel
16
Mo 20.09. 22:2010993 %1025
1025
1023
NW 2 (3)>= 10000Nicht signifikant 
Hamburg-Fuhlsbüttel
16
Mo 20.09. 21:50111094 %1025
1025
1023
Uml 1 (1)>= 10000Nicht signifikant 
Hamburg-Fuhlsbüttel
16
Mo 20.09. 21:20111094 %1025
1025
1023
NW 2 (3)>= 10000Nicht signifikant 
Hamburg-Fuhlsbüttel
16
Mo 20.09. 20:50121088 %1025
1025
1023
NW 2 (3)>= 10000Nicht signifikant 
Hamburg-Fuhlsbüttel
16
Mo 20.09. 20:20121088 %1025
1025
1023
N 1 (2)>= 10000Nicht signifikant 
Hamburg-Fuhlsbüttel
16
Mo 20.09. 19:50121088 %1025
1025
1023
NNO 1 (2)>= 10000Nicht signifikant 
Hamburg-Fuhlsbüttel
16
Mo 20.09. 19:20121088 %1024
1024
1022
NO 1 (2)>= 10000Nicht signifikant 
Hamburg-Fuhlsbüttel
16
Mo 20.09. 18:5013977 %1024
1024
1022
Uml 1 (1)>= 10000Nicht signifikant 
Hamburg-Fuhlsbüttel
16
Mo 20.09. 18:2014867 %1024
1024
1022
N 2 (3)
NNW - NO
>= 10000Nicht signifikant 
Hamburg-Fuhlsbüttel
16
Mo 20.09. 17:5014867 %1024
1024
1022
NNO 2 (4)
N - ONO
>= 10000Leicht bewölkt (850) 
Hamburg-Fuhlsbüttel
16
Mo 20.09. 17:2014867 %1024
1024
1022
N 2 (4)
NNW - NO
>= 10000Leicht bewölkt (850) 
Hamburg-Fuhlsbüttel
16
Mo 20.09. 16:5014763 %1023
1023
1021
N 2 (4)
NW - ONO
>= 10000Leicht bewölkt (850) 
Hamburg-Fuhlsbüttel
16
Mo 20.09. 16:2014867 %1023
1023
1021
NNO 2 (6)
NNW - NO
>= 10000Leicht bewölkt (790) 
Hamburg-Fuhlsbüttel
16
Mo 20.09. 15:5014763 %1023
1023
1021
N 3 (7)
NW - NNO
>= 10000Leicht bewölkt (790) 
Hamburg-Fuhlsbüttel
16
Mo 20.09. 15:2014763 %1023
1023
1021
NNO 3 (7)>= 10000Leicht bewölkt (790) 
Hamburg-Fuhlsbüttel
16
Mo 20.09. 14:5014867 %1023
1023
1021
NNO 2 (6)
NNW - NO
>= 10000Leicht bewölkt (760) 
Hamburg-Fuhlsbüttel
16
Mo 20.09. 14:2014867 %1023
1023
1021
N 2 (6)
NW - NNO
>= 10000Leicht bewölkt (760) 
Hamburg-Fuhlsbüttel
16
Mo 20.09. 13:5014867 %1023
1023
1021
NNO 2 (6)
N - ONO
>= 10000Leicht bewölkt (760) 
Hamburg-Fuhlsbüttel
16
Mo 20.09. 13:2014867 %1023
1023
1021
NNO 2 (6)
N - ONO
>= 10000Leicht bewölkt (760) 
Hamburg-Fuhlsbüttel
16
Mo 20.09. 12:5014867 %1023
1023
1021
NO 2 (5)
NNW - O
>= 10000Leicht bewölkt (760) 
Hamburg-Fuhlsbüttel
16
Mo 20.09. 12:2014867 %1023
1023
1021
NO 2 (6)
N - ONO
>= 10000Leicht bewölkt (760) 
Hamburg-Fuhlsbüttel
16
Mo 20.09. 11:5013872 %1023
1023
1021
NO 2 (5)
N - ONO
>= 10000Leicht bewölkt (760) 
Hamburg-Fuhlsbüttel
16
Mo 20.09. 11:2013872 %1023
1023
1021
ONO 2 (6)
NNO - O
>= 10000Leicht bewölkt (760) 
Hamburg-Fuhlsbüttel
16
Mo 20.09. 10:5013977 %1023
1023
1021
NO 2 (5)
NNO - O
>= 10000Nicht signifikant 
Hamburg-Fuhlsbüttel
16
Mo 20.09. 10:2013977 %1023
1023
1021
NO 2 (5)>= 10000Nicht signifikant 
Hamburg-Fuhlsbüttel
16
Mo 20.09. 09:5012982 %1023
1023
1021
NO 2 (4)
N - ONO
>= 10000Nicht signifikant 
Hamburg-Fuhlsbüttel
16
Mo 20.09. 09:2012876 %1022
1022
1020
NO 2 (5)
NNO - O
>= 10000Nicht signifikant 
Hamburg-Fuhlsbüttel
16
Mo 20.09. 08:5012982 %1022
1022
1020
ONO 2 (5)>= 10000Nicht signifikant 
Hamburg-Fuhlsbüttel
16
Mo 20.09. 08:2011987 %1022
1022
1020
NO 2 (3)
NNO - O
>= 10000Stark bewölkt (1500) 
Hamburg-Fuhlsbüttel
16
Mo 20.09. 07:5011882 %1022
1022
1020
ONO 2 (3)>= 10000Stark bewölkt (1500) 
Hamburg-Fuhlsbüttel
16
Mo 20.09. 07:2011882 %1022
1022
1020
ONO 2 (4)>= 10000Stark bewölkt (1500) 
Hamburg-Fuhlsbüttel
16
Mo 20.09. 06:5011882 %1022
1022
1020
NO 2 (4)>= 10000Stark bewölkt (1500) 
Hamburg-Fuhlsbüttel
16
Mo 20.09. 06:2011882 %1021
1021
1019
NO 2 (3)>= 10000Stark bewölkt (1500) 
Hamburg-Fuhlsbüttel
16
Mo 20.09. 05:5011882 %1021
1021
1019
NO 2 (4)
N - ONO
>= 10000Nicht signifikant 
Hamburg-Fuhlsbüttel
16
Mo 20.09. 05:2011882 %1021
1021
1019
NO 2 (5)>= 10000Nicht signifikant 
Hamburg-Fuhlsbüttel
16
Mo 20.09. 04:5011882 %1021
1021
1019
NO 2 (4)
N - ONO
>= 10000Nicht signifikant 
Hamburg-Fuhlsbüttel
16
Mo 20.09. 04:2011882 %1021
1021
1019
NO 2 (4)>= 10000Nicht signifikant 
Hamburg-Fuhlsbüttel
16
Mo 20.09. 03:5011882 %1021
1021
1019
ONO 2 (6)>= 10000Nicht signifikant 
Hamburg-Fuhlsbüttel
16
Mo 20.09. 03:2012876 %1021
1021
1019
NO 2 (5)>= 10000Nicht signifikant 
Hamburg-Fuhlsbüttel
16
Mo 20.09. 02:5012982 %1021
1021
1019
ONO 2 (5)>= 10000Nicht signifikant 
Hamburg-Fuhlsbüttel
16
Mo 20.09. 02:2012982 %1021
1021
1019
ONO 2 (6)>= 10000Nicht signifikant 
Hamburg-Fuhlsbüttel
16
Mo 20.09. 01:5012982 %1021
1021
1019
NO 2 (5)>= 10000Nicht signifikant 
Hamburg-Fuhlsbüttel
16
Mo 20.09. 01:2012982 %1021
1021
1019
ONO 2 (5)>= 10000Nicht signifikant 
Hamburg-Fuhlsbüttel
16
Mo 20.09. 00:5012982 %1020
1020
1018
ONO 3 (7)>= 10000Nicht signifikant 
Hamburg-Fuhlsbüttel
16
Mo 20.09. 00:2012982 %1020
1020
1018
ONO 3 (7)>= 10000Nicht signifikant 
Hamburg-Fuhlsbüttel
16
So 19.09. 23:5012982 %1020
1020
1018
ONO 3 (7)>= 10000Nicht signifikant 
Hamburg-Fuhlsbüttel
16
So 19.09. 23:2013977 %1020
1020
1018
O 3 (7)>= 10000Nicht signifikant 
Hamburg-Fuhlsbüttel
16
So 19.09. 22:5013977 %1020
1020
1018
ONO 3 (7)>= 10000Nicht signifikant 
Hamburg-Fuhlsbüttel
16
So 19.09. 22:2013977 %1020
1020
1018
O 3 (7)>= 10000Nicht signifikant 
Hamburg-Fuhlsbüttel
16
So 19.09. 21:5013977 %1020
1020
1018
ONO 2 (6)>= 10000Nicht signifikant 
Hamburg-Fuhlsbüttel
16
So 19.09. 21:2013977 %1020
1020
1018
ONO 3 (7)>= 10000Nicht signifikant 
Hamburg-Fuhlsbüttel
16
So 19.09. 20:5013977 %1019
1019
1017
O 3 (7)>= 10000Nicht signifikant 
Hamburg-Fuhlsbüttel
16
So 19.09. 20:2014972 %1019
1019
1017
O 3 (8)>= 10000Leicht bewölkt (1100) 
Hamburg-Fuhlsbüttel
16
So 19.09. 19:50141077 %1019
1019
1017
NO 2 (4)>= 10000Bedeckt (1500)
Leicht bewölkt (1100)
 
Hamburg-Fuhlsbüttel
16
So 19.09. 19:2014972 %1019
1019
1017
ONO 2 (4)>= 10000Stark bewölkt (1500)
Leicht bewölkt (760)
 
Hamburg-Fuhlsbüttel
16
So 19.09. 18:5014972 %1019
1019
1017
ONO 2 (6)>= 10000Stark bewölkt (1500)
Leicht bewölkt (760)
 
Hamburg-Fuhlsbüttel
16
So 19.09. 18:2015967 %1019
1019
1017
ONO 2 (6)>= 10000Stark bewölkt (1500)
Leicht bewölkt (850)
 
Hamburg-Fuhlsbüttel
16
So 19.09. 17:5015967 %1019
1019
1017
ONO 2 (5)
NO - OSO
>= 10000Stark bewölkt (1500)
Leicht bewölkt (850)
 
Hamburg-Fuhlsbüttel
16
So 19.09. 17:2015967 %1019
1019
1017
NO 2 (5)>= 10000Stark bewölkt (1500)
Leicht bewölkt (850)
 

Altimeter: Einstellung am Altimeter (Höhenmesser), die Höhe 0 muss auf diesen Luftdruckwert zeigen, damit das Gerät die Stationshöhe richtig anzeigt.

NN: Luftdruck reduziert auf "Normal Null", auf Meereshöhe, dieser von der Temperatur abhängige Wert wird bisweilen unkorrekt einfach als "Luftdruck" bezeichnet. Eigentlich nur eine fiktive Größe, die es erlaubt, Stationen auf unterschiedlichen Höhen miteinander zu vergleichen.

Station: Realer Luftdruck an der Station.